sensor_id;sensor_type;location;lat;lon;timestamp;P1;durP1;ratioP1;P2;durP2;ratioP2
48588;SDS011;34369;51.174;6.738;2023-02-13T00:00:22;37.93;;;35.23;;
48588;SDS011;34369;51.174;6.738;2023-02-13T00:02:55;38.40;;;35.70;;
48588;SDS011;34369;51.174;6.738;2023-02-13T00:05:27;37.33;;;34.63;;
48588;SDS011;34369;51.174;6.738;2023-02-13T00:07:59;39.93;;;37.07;;
48588;SDS011;34369;51.174;6.738;2023-02-13T00:10:32;37.87;;;35.17;;
48588;SDS011;34369;51.174;6.738;2023-02-13T00:13:04;37.83;;;35.03;;
48588;SDS011;34369;51.174;6.738;2023-02-13T00:15:36;39.07;;;36.20;;
48588;SDS011;34369;51.174;6.738;2023-02-13T00:18:08;39.53;;;36.60;;
48588;SDS011;34369;51.174;6.738;2023-02-13T00:20:40;38.67;;;35.87;;
48588;SDS011;34369;51.174;6.738;2023-02-13T00:23:12;38.80;;;36.00;;
48588;SDS011;34369;51.174;6.738;2023-02-13T00:25:45;39.00;;;36.13;;
48588;SDS011;34369;51.174;6.738;2023-02-13T00:28:17;38.90;;;36.03;;
48588;SDS011;34369;51.174;6.738;2023-02-13T00:30:49;38.80;;;35.90;;
48588;SDS011;34369;51.174;6.738;2023-02-13T00:33:21;38.37;;;35.57;;
48588;SDS011;34369;51.174;6.738;2023-02-13T00:36:00;40.00;;;37.00;;
48588;SDS011;34369;51.174;6.738;2023-02-13T00:38:37;39.40;;;36.50;;
48588;SDS011;34369;51.174;6.738;2023-02-13T00:41:11;39.13;;;36.30;;
48588;SDS011;34369;51.174;6.738;2023-02-13T00:43:45;40.23;;;37.17;;
48588;SDS011;34369;51.174;6.738;2023-02-13T00:46:18;41.90;;;38.70;;
48588;SDS011;34369;51.174;6.738;2023-02-13T00:48:50;40.60;;;37.70;;
48588;SDS011;34369;51.174;6.738;2023-02-13T00:51:22;41.33;;;38.23;;
48588;SDS011;34369;51.174;6.738;2023-02-13T00:53:54;40.87;;;37.73;;
48588;SDS011;34369;51.174;6.738;2023-02-13T00:56:28;41.37;;;38.17;;
48588;SDS011;34369;51.174;6.738;2023-02-13T00:58:59;41.70;;;38.60;;
48588;SDS011;34369;51.174;6.738;2023-02-13T01:01:31;39.77;;;36.87;;
48588;SDS011;34369;51.174;6.738;2023-02-13T01:04:03;40.37;;;37.37;;
48588;SDS011;34369;51.174;6.738;2023-02-13T01:06:35;40.63;;;37.43;;
48588;SDS011;34369;51.174;6.738;2023-02-13T01:09:07;38.93;;;35.93;;
48588;SDS011;34369;51.174;6.738;2023-02-13T01:11:41;40.40;;;37.47;;
48588;SDS011;34369;51.174;6.738;2023-02-13T01:14:13;40.27;;;37.20;;
48588;SDS011;34369;51.174;6.738;2023-02-13T01:16:45;38.27;;;35.43;;
48588;SDS011;34369;51.174;6.738;2023-02-13T01:19:17;40.33;;;37.23;;
48588;SDS011;34369;51.174;6.738;2023-02-13T01:21:49;40.70;;;37.63;;
48588;SDS011;34369;51.174;6.738;2023-02-13T01:24:21;40.37;;;37.40;;
48588;SDS011;34369;51.174;6.738;2023-02-13T01:26:54;39.93;;;37.03;;
48588;SDS011;34369;51.174;6.738;2023-02-13T01:29:26;41.17;;;38.17;;
48588;SDS011;34369;51.174;6.738;2023-02-13T01:31:58;41.63;;;38.43;;
48588;SDS011;34369;51.174;6.738;2023-02-13T01:34:31;41.27;;;38.27;;
48588;SDS011;34369;51.174;6.738;2023-02-13T01:37:04;41.20;;;38.10;;
48588;SDS011;34369;51.174;6.738;2023-02-13T01:39:35;42.23;;;39.13;;
48588;SDS011;34369;51.174;6.738;2023-02-13T01:42:11;39.50;;;36.43;;
48588;SDS011;34369;51.174;6.738;2023-02-13T01:44:48;40.43;;;37.33;;
48588;SDS011;34369;51.174;6.738;2023-02-13T01:47:23;40.75;;;37.70;;
48588;SDS011;34369;51.174;6.738;2023-02-13T01:50:03;40.20;;;37.20;;
48588;SDS011;34369;51.174;6.738;2023-02-13T01:52:41;41.23;;;38.20;;
48588;SDS011;34369;51.174;6.738;2023-02-13T01:55:19;40.77;;;37.67;;
48588;SDS011;34369;51.174;6.738;2023-02-13T01:57:53;40.37;;;37.37;;
48588;SDS011;34369;51.174;6.738;2023-02-13T02:00:29;40.37;;;37.37;;
48588;SDS011;34369;51.174;6.738;2023-02-13T02:03:02;39.50;;;36.67;;
48588;SDS011;34369;51.174;6.738;2023-02-13T02:08:10;38.40;;;35.57;;
48588;SDS011;34369;51.174;6.738;2023-02-13T02:10:44;41.23;;;38.13;;
48588;SDS011;34369;51.174;6.738;2023-02-13T02:13:18;39.00;;;36.20;;
48588;SDS011;34369;51.174;6.738;2023-02-13T02:15:53;39.78;;;36.83;;
48588;SDS011;34369;51.174;6.738;2023-02-13T02:18:25;39.80;;;36.90;;
48588;SDS011;34369;51.174;6.738;2023-02-13T02:21:17;39.03;;;36.23;;
48588;SDS011;34369;51.174;6.738;2023-02-13T02:27:32;39.37;;;36.63;;
48588;SDS011;34369;51.174;6.738;2023-02-13T02:30:40;38.90;;;36.10;;
48588;SDS011;34369;51.174;6.738;2023-02-13T02:33:38;39.67;;;36.93;;
48588;SDS011;34369;51.174;6.738;2023-02-13T02:39:02;39.77;;;36.97;;
48588;SDS011;34369;51.174;6.738;2023-02-13T02:41:46;37.43;;;34.77;;
48588;SDS011;34369;51.174;6.738;2023-02-13T02:44:32;39.40;;;36.67;;
48588;SDS011;34369;51.174;6.738;2023-02-13T02:47:15;38.50;;;35.63;;
48588;SDS011;34369;51.174;6.738;2023-02-13T02:50:15;40.07;;;37.17;;
48588;SDS011;34369;51.174;6.738;2023-02-13T02:53:05;38.97;;;36.27;;
48588;SDS011;34369;51.174;6.738;2023-02-13T02:55:54;39.27;;;36.57;;
48588;SDS011;34369;51.174;6.738;2023-02-13T02:58:32;39.83;;;36.93;;
48588;SDS011;34369;51.174;6.738;2023-02-13T03:01:28;39.37;;;36.57;;
48588;SDS011;34369;51.174;6.738;2023-02-13T03:04:21;39.77;;;36.97;;
48588;SDS011;34369;51.174;6.738;2023-02-13T03:07:16;40.57;;;37.67;;
48588;SDS011;34369;51.174;6.738;2023-02-13T03:09:50;40.53;;;37.73;;
48588;SDS011;34369;51.174;6.738;2023-02-13T03:12:44;39.67;;;36.90;;
48588;SDS011;34369;51.174;6.738;2023-02-13T03:15:40;39.17;;;36.37;;
48588;SDS011;34369;51.174;6.738;2023-02-13T03:18:29;42.43;;;39.53;;
48588;SDS011;34369;51.174;6.738;2023-02-13T03:21:24;39.40;;;36.50;;
48588;SDS011;34369;51.174;6.738;2023-02-13T03:24:30;37.93;;;35.17;;
48588;SDS011;34369;51.174;6.738;2023-02-13T03:27:16;39.57;;;36.77;;
48588;SDS011;34369;51.174;6.738;2023-02-13T03:30:21;38.87;;;36.10;;
48588;SDS011;34369;51.174;6.738;2023-02-13T03:33:08;39.03;;;36.33;;
48588;SDS011;34369;51.174;6.738;2023-02-13T03:36:01;38.37;;;35.67;;
48588;SDS011;34369;51.174;6.738;2023-02-13T03:39:00;39.47;;;36.70;;
48588;SDS011;34369;51.174;6.738;2023-02-13T03:41:41;39.70;;;36.80;;
48588;SDS011;34369;51.174;6.738;2023-02-13T03:44:22;39.93;;;37.03;;
48588;SDS011;34369;51.174;6.738;2023-02-13T03:47:01;39.57;;;36.87;;
48588;SDS011;34369;51.174;6.738;2023-02-13T03:49:36;40.53;;;37.53;;
48588;SDS011;34369;51.174;6.738;2023-02-13T03:52:35;39.07;;;36.27;;
48588;SDS011;34369;51.174;6.738;2023-02-13T03:55:14;38.73;;;35.93;;
48588;SDS011;34369;51.174;6.738;2023-02-13T03:58:10;39.13;;;36.33;;
48588;SDS011;34369;51.174;6.738;2023-02-13T04:01:05;38.10;;;35.40;;
48588;SDS011;34369;51.174;6.738;2023-02-13T04:03:44;40.47;;;37.47;;
48588;SDS011;34369;51.174;6.738;2023-02-13T04:06:26;39.63;;;36.80;;
48588;SDS011;34369;51.174;6.738;2023-02-13T04:09:02;38.50;;;35.70;;
48588;SDS011;34369;51.174;6.738;2023-02-13T04:11:35;39.63;;;36.67;;
48588;SDS011;34369;51.174;6.738;2023-02-13T04:14:14;40.73;;;37.93;;
48588;SDS011;34369;51.174;6.738;2023-02-13T04:16:52;39.60;;;36.73;;
48588;SDS011;34369;51.174;6.738;2023-02-13T04:19:29;39.93;;;37.13;;
48588;SDS011;34369;51.174;6.738;2023-02-13T04:22:02;39.63;;;36.73;;
48588;SDS011;34369;51.174;6.738;2023-02-13T04:24:34;39.80;;;37.00;;
48588;SDS011;34369;51.174;6.738;2023-02-13T04:27:06;40.10;;;37.30;;
48588;SDS011;34369;51.174;6.738;2023-02-13T04:29:42;41.20;;;38.30;;
48588;SDS011;34369;51.174;6.738;2023-02-13T04:32:14;40.13;;;37.23;;
48588;SDS011;34369;51.174;6.738;2023-02-13T04:34:46;41.00;;;38.10;;
48588;SDS011;34369;51.174;6.738;2023-02-13T04:37:18;39.77;;;36.97;;
48588;SDS011;34369;51.174;6.738;2023-02-13T04:39:50;40.07;;;37.17;;
48588;SDS011;34369;51.174;6.738;2023-02-13T04:42:22;41.10;;;38.20;;
48588;SDS011;34369;51.174;6.738;2023-02-13T04:44:55;43.70;;;40.60;;
48588;SDS011;34369;51.174;6.738;2023-02-13T04:47:27;40.03;;;37.13;;
48588;SDS011;34369;51.174;6.738;2023-02-13T04:49:59;39.93;;;37.03;;
48588;SDS011;34369;51.174;6.738;2023-02-13T04:52:31;40.97;;;38.07;;
48588;SDS011;34369;51.174;6.738;2023-02-13T04:55:03;41.40;;;38.40;;
48588;SDS011;34369;51.174;6.738;2023-02-13T04:57:36;41.10;;;38.10;;
48588;SDS011;34369;51.174;6.738;2023-02-13T05:00:09;39.97;;;37.07;;
48588;SDS011;34369;51.174;6.738;2023-02-13T05:02:42;42.97;;;39.87;;
48588;SDS011;34369;51.174;6.738;2023-02-13T05:05:14;42.03;;;39.03;;
48588;SDS011;34369;51.174;6.738;2023-02-13T05:07:47;42.20;;;39.17;;
48588;SDS011;34369;51.174;6.738;2023-02-13T05:10:19;42.30;;;39.20;;
48588;SDS011;34369;51.174;6.738;2023-02-13T05:12:51;41.83;;;38.73;;
48588;SDS011;34369;51.174;6.738;2023-02-13T05:15:24;43.20;;;40.10;;
48588;SDS011;34369;51.174;6.738;2023-02-13T05:17:57;42.00;;;39.00;;
48588;SDS011;34369;51.174;6.738;2023-02-13T05:20:29;41.50;;;38.53;;
48588;SDS011;34369;51.174;6.738;2023-02-13T05:23:01;41.83;;;38.73;;
48588;SDS011;34369;51.174;6.738;2023-02-13T05:25:50;42.40;;;39.37;;
48588;SDS011;34369;51.174;6.738;2023-02-13T05:28:23;43.37;;;40.27;;
48588;SDS011;34369;51.174;6.738;2023-02-13T05:31:13;43.20;;;39.93;;
48588;SDS011;34369;51.174;6.738;2023-02-13T05:33:45;41.10;;;38.10;;
48588;SDS011;34369;51.174;6.738;2023-02-13T05:36:17;42.43;;;39.33;;
48588;SDS011;34369;51.174;6.738;2023-02-13T05:38:49;41.73;;;38.70;;
48588;SDS011;34369;51.174;6.738;2023-02-13T05:41:21;42.87;;;39.67;;
48588;SDS011;34369;51.174;6.738;2023-02-13T05:43:53;41.60;;;38.60;;
48588;SDS011;34369;51.174;6.738;2023-02-13T05:46:26;44.47;;;41.27;;
48588;SDS011;34369;51.174;6.738;2023-02-13T05:48:58;43.90;;;40.60;;
48588;SDS011;34369;51.174;6.738;2023-02-13T05:51:30;44.30;;;41.13;;
48588;SDS011;34369;51.174;6.738;2023-02-13T05:54:02;43.37;;;40.07;;
48588;SDS011;34369;51.174;6.738;2023-02-13T05:56:34;44.53;;;41.27;;
48588;SDS011;34369;51.174;6.738;2023-02-13T05:59:06;43.80;;;40.60;;
48588;SDS011;34369;51.174;6.738;2023-02-13T06:01:40;44.53;;;41.23;;
48588;SDS011;34369;51.174;6.738;2023-02-13T06:04:12;45.90;;;42.47;;
48588;SDS011;34369;51.174;6.738;2023-02-13T06:06:44;45.87;;;42.47;;
48588;SDS011;34369;51.174;6.738;2023-02-13T06:09:16;46.00;;;42.50;;
48588;SDS011;34369;51.174;6.738;2023-02-13T06:11:48;43.70;;;40.57;;
48588;SDS011;34369;51.174;6.738;2023-02-13T06:14:20;43.47;;;40.23;;
48588;SDS011;34369;51.174;6.738;2023-02-13T06:16:53;45.13;;;41.83;;
48588;SDS011;34369;51.174;6.738;2023-02-13T06:19:25;44.90;;;41.73;;
48588;SDS011;34369;51.174;6.738;2023-02-13T06:21:57;44.87;;;41.47;;
48588;SDS011;34369;51.174;6.738;2023-02-13T06:24:29;44.33;;;41.13;;
48588;SDS011;34369;51.174;6.738;2023-02-13T06:27:02;43.83;;;40.63;;
48588;SDS011;34369;51.174;6.738;2023-02-13T06:29:34;44.77;;;41.47;;
48588;SDS011;34369;51.174;6.738;2023-02-13T06:32:08;44.47;;;41.17;;
48588;SDS011;34369;51.174;6.738;2023-02-13T06:34:40;45.47;;;42.07;;
48588;SDS011;34369;51.174;6.738;2023-02-13T06:37:12;44.27;;;40.97;;
48588;SDS011;34369;51.174;6.738;2023-02-13T06:39:44;44.70;;;41.30;;
48588;SDS011;34369;51.174;6.738;2023-02-13T06:42:16;44.60;;;41.40;;
48588;SDS011;34369;51.174;6.738;2023-02-13T06:44:49;43.13;;;39.87;;
48588;SDS011;34369;51.174;6.738;2023-02-13T06:47:23;44.67;;;41.47;;
48588;SDS011;34369;51.174;6.738;2023-02-13T06:49:54;43.70;;;40.50;;
48588;SDS011;34369;51.174;6.738;2023-02-13T06:52:26;45.33;;;41.93;;
48588;SDS011;34369;51.174;6.738;2023-02-13T06:54:59;45.43;;;42.17;;
48588;SDS011;34369;51.174;6.738;2023-02-13T06:57:31;44.13;;;40.93;;
48588;SDS011;34369;51.174;6.738;2023-02-13T07:00:04;43.37;;;40.17;;
48588;SDS011;34369;51.174;6.738;2023-02-13T07:02:43;44.73;;;41.33;;
48588;SDS011;34369;51.174;6.738;2023-02-13T07:05:17;45.50;;;42.10;;
48588;SDS011;34369;51.174;6.738;2023-02-13T07:07:49;44.67;;;41.27;;
48588;SDS011;34369;51.174;6.738;2023-02-13T07:10:21;45.27;;;41.90;;
48588;SDS011;34369;51.174;6.738;2023-02-13T07:12:53;44.70;;;41.20;;
48588;SDS011;34369;51.174;6.738;2023-02-13T07:15:25;44.67;;;41.47;;
48588;SDS011;34369;51.174;6.738;2023-02-13T07:18:02;43.10;;;39.80;;
48588;SDS011;34369;51.174;6.738;2023-02-13T07:20:35;42.90;;;39.70;;
48588;SDS011;34369;51.174;6.738;2023-02-13T07:23:08;43.30;;;40.07;;
48588;SDS011;34369;51.174;6.738;2023-02-13T07:25:41;44.00;;;40.83;;
48588;SDS011;34369;51.174;6.738;2023-02-13T07:28:13;44.00;;;40.63;;
48588;SDS011;34369;51.174;6.738;2023-02-13T07:30:45;43.27;;;40.13;;
48588;SDS011;34369;51.174;6.738;2023-02-13T07:33:19;43.67;;;40.37;;
48588;SDS011;34369;51.174;6.738;2023-02-13T07:35:52;43.80;;;40.70;;
48588;SDS011;34369;51.174;6.738;2023-02-13T07:38:27;41.70;;;38.70;;
48588;SDS011;34369;51.174;6.738;2023-02-13T07:40:59;41.90;;;38.80;;
48588;SDS011;34369;51.174;6.738;2023-02-13T07:43:33;41.50;;;38.20;;
48588;SDS011;34369;51.174;6.738;2023-02-13T07:46:05;40.07;;;36.97;;
48588;SDS011;34369;51.174;6.738;2023-02-13T07:48:39;40.50;;;37.50;;
48588;SDS011;34369;51.174;6.738;2023-02-13T07:51:11;39.97;;;37.07;;
48588;SDS011;34369;51.174;6.738;2023-02-13T07:53:43;40.93;;;37.93;;
48588;SDS011;34369;51.174;6.738;2023-02-13T07:56:16;40.93;;;37.93;;
48588;SDS011;34369;51.174;6.738;2023-02-13T07:58:48;40.43;;;37.43;;
48588;SDS011;34369;51.174;6.738;2023-02-13T08:01:21;40.27;;;37.37;;
48588;SDS011;34369;51.174;6.738;2023-02-13T08:03:54;40.37;;;37.37;;
48588;SDS011;34369;51.174;6.738;2023-02-13T08:06:27;39.90;;;36.80;;
48588;SDS011;34369;51.174;6.738;2023-02-13T08:08:59;40.97;;;37.97;;
48588;SDS011;34369;51.174;6.738;2023-02-13T08:11:48;41.10;;;38.03;;
48588;SDS011;34369;51.174;6.738;2023-02-13T08:14:25;40.75;;;37.85;;
48588;SDS011;34369;51.174;6.738;2023-02-13T08:16:57;39.00;;;36.00;;
48588;SDS011;34369;51.174;6.738;2023-02-13T08:19:32;39.50;;;36.50;;
48588;SDS011;34369;51.174;6.738;2023-02-13T08:22:04;39.22;;;36.33;;
48588;SDS011;34369;51.174;6.738;2023-02-13T08:24:36;38.73;;;35.73;;
48588;SDS011;34369;51.174;6.738;2023-02-13T08:27:10;38.00;;;35.10;;
48588;SDS011;34369;51.174;6.738;2023-02-13T08:29:47;37.28;;;34.28;;
48588;SDS011;34369;51.174;6.738;2023-02-13T08:32:21;35.65;;;32.95;;
48588;SDS011;34369;51.174;6.738;2023-02-13T08:34:54;36.50;;;33.70;;
48588;SDS011;34369;51.174;6.738;2023-02-13T08:37:27;35.85;;;33.08;;
48588;SDS011;34369;51.174;6.738;2023-02-13T08:39:59;35.42;;;32.72;;
48588;SDS011;34369;51.174;6.738;2023-02-13T08:42:31;36.95;;;34.15;;
48588;SDS011;34369;51.174;6.738;2023-02-13T08:45:03;37.05;;;34.25;;
48588;SDS011;34369;51.174;6.738;2023-02-13T08:47:36;34.95;;;32.28;;
48588;SDS011;34369;51.174;6.738;2023-02-13T08:50:10;34.30;;;31.60;;
48588;SDS011;34369;51.174;6.738;2023-02-13T08:52:42;34.60;;;31.90;;
48588;SDS011;34369;51.174;6.738;2023-02-13T08:55:15;34.22;;;31.27;;
48588;SDS011;34369;51.174;6.738;2023-02-13T08:57:47;34.65;;;31.95;;
48588;SDS011;34369;51.174;6.738;2023-02-13T09:00:19;34.92;;;32.30;;
48588;SDS011;34369;51.174;6.738;2023-02-13T09:02:51;35.88;;;33.17;;
48588;SDS011;34369;51.174;6.738;2023-02-13T09:05:25;35.47;;;32.78;;
48588;SDS011;34369;51.174;6.738;2023-02-13T09:07:58;34.75;;;32.15;;
48588;SDS011;34369;51.174;6.738;2023-02-13T09:10:32;34.10;;;31.40;;
48588;SDS011;34369;51.174;6.738;2023-02-13T09:13:05;32.95;;;30.45;;
48588;SDS011;34369;51.174;6.738;2023-02-13T09:15:37;32.97;;;30.38;;
48588;SDS011;34369;51.174;6.738;2023-02-13T09:18:10;32.60;;;30.15;;
48588;SDS011;34369;51.174;6.738;2023-02-13T09:20:44;32.08;;;29.67;;
48588;SDS011;34369;51.174;6.738;2023-02-13T09:23:16;31.17;;;28.80;;
48588;SDS011;34369;51.174;6.738;2023-02-13T09:25:48;31.45;;;29.05;;
48588;SDS011;34369;51.174;6.738;2023-02-13T09:28:20;32.13;;;29.58;;
48588;SDS011;34369;51.174;6.738;2023-02-13T09:30:53;32.22;;;29.73;;
48588;SDS011;34369;51.174;6.738;2023-02-13T09:33:25;31.50;;;29.08;;
48588;SDS011;34369;51.174;6.738;2023-02-13T09:35:59;30.98;;;28.58;;
48588;SDS011;34369;51.174;6.738;2023-02-13T09:38:35;32.83;;;30.20;;
48588;SDS011;34369;51.174;6.738;2023-02-13T09:41:09;32.47;;;29.98;;
48588;SDS011;34369;51.174;6.738;2023-02-13T09:43:46;33.55;;;30.88;;
48588;SDS011;34369;51.174;6.738;2023-02-13T09:46:23;34.45;;;31.73;;
48588;SDS011;34369;51.174;6.738;2023-02-13T09:49:00;32.88;;;30.35;;
48588;SDS011;34369;51.174;6.738;2023-02-13T09:51:40;33.10;;;30.50;;
48588;SDS011;34369;51.174;6.738;2023-02-13T09:54:15;33.45;;;30.75;;
48588;SDS011;34369;51.174;6.738;2023-02-13T09:56:49;34.40;;;31.80;;
48588;SDS011;34369;51.174;6.738;2023-02-13T09:59:38;34.13;;;31.38;;
48588;SDS011;34369;51.174;6.738;2023-02-13T10:02:27;34.92;;;32.08;;
48588;SDS011;34369;51.174;6.738;2023-02-13T10:05:16;34.42;;;31.73;;
48588;SDS011;34369;51.174;6.738;2023-02-13T10:08:04;34.75;;;31.95;;
48588;SDS011;34369;51.174;6.738;2023-02-13T10:10:50;34.90;;;32.17;;
48588;SDS011;34369;51.174;6.738;2023-02-13T10:13:27;36.08;;;33.25;;
48588;SDS011;34369;51.174;6.738;2023-02-13T10:16:26;35.53;;;32.63;;
48588;SDS011;34369;51.174;6.738;2023-02-13T10:19:10;34.45;;;31.83;;
48588;SDS011;34369;51.174;6.738;2023-02-13T10:21:53;34.80;;;32.13;;
48588;SDS011;34369;51.174;6.738;2023-02-13T10:24:32;34.28;;;31.67;;
48588;SDS011;34369;51.174;6.738;2023-02-13T10:27:14;33.58;;;31.08;;
48588;SDS011;34369;51.174;6.738;2023-02-13T10:29:54;34.08;;;31.40;;
48588;SDS011;34369;51.174;6.738;2023-02-13T10:32:41;34.38;;;31.77;;
48588;SDS011;34369;51.174;6.738;2023-02-13T10:35:22;34.08;;;31.48;;
48588;SDS011;34369;51.174;6.738;2023-02-13T10:37:59;35.10;;;32.42;;
48588;SDS011;34369;51.174;6.738;2023-02-13T10:40:57;34.65;;;31.95;;
48588;SDS011;34369;51.174;6.738;2023-02-13T10:43:37;33.80;;;31.20;;
48588;SDS011;34369;51.174;6.738;2023-02-13T10:46:21;34.22;;;31.52;;
48588;SDS011;34369;51.174;6.738;2023-02-13T10:49:09;34.75;;;32.08;;
48588;SDS011;34369;51.174;6.738;2023-02-13T10:52:03;34.03;;;31.45;;
48588;SDS011;34369;51.174;6.738;2023-02-13T10:55:01;34.00;;;31.40;;
48588;SDS011;34369;51.174;6.738;2023-02-13T10:57:56;33.65;;;30.90;;
48588;SDS011;34369;51.174;6.738;2023-02-13T11:00:40;33.28;;;30.73;;
48588;SDS011;34369;51.174;6.738;2023-02-13T11:03:18;34.35;;;31.75;;
48588;SDS011;34369;51.174;6.738;2023-02-13T11:05:56;34.30;;;31.70;;
48588;SDS011;34369;51.174;6.738;2023-02-13T11:08:37;32.05;;;29.65;;
48588;SDS011;34369;51.174;6.738;2023-02-13T11:11:29;30.73;;;28.23;;
48588;SDS011;34369;51.174;6.738;2023-02-13T11:14:15;30.80;;;28.20;;
48588;SDS011;34369;51.174;6.738;2023-02-13T11:16:50;31.00;;;28.38;;
48588;SDS011;34369;51.174;6.738;2023-02-13T11:19:28;30.25;;;27.70;;
48588;SDS011;34369;51.174;6.738;2023-02-13T11:22:04;30.38;;;27.98;;
48588;SDS011;34369;51.174;6.738;2023-02-13T11:24:42;30.30;;;27.85;;
48588;SDS011;34369;51.174;6.738;2023-02-13T11:27:23;30.27;;;27.88;;
48588;SDS011;34369;51.174;6.738;2023-02-13T11:30:04;29.77;;;27.27;;
48588;SDS011;34369;51.174;6.738;2023-02-13T11:33:02;29.98;;;27.55;;
48588;SDS011;34369;51.174;6.738;2023-02-13T11:35:37;29.95;;;27.55;;
48588;SDS011;34369;51.174;6.738;2023-02-13T11:38:11;30.13;;;27.80;;
48588;SDS011;34369;51.174;6.738;2023-02-13T11:41:02;29.77;;;27.45;;
48588;SDS011;34369;51.174;6.738;2023-02-13T11:43:42;29.73;;;27.40;;
48588;SDS011;34369;51.174;6.738;2023-02-13T11:46:20;30.23;;;27.83;;
48588;SDS011;34369;51.174;6.738;2023-02-13T11:48:55;30.05;;;27.75;;
48588;SDS011;34369;51.174;6.738;2023-02-13T11:51:33;30.70;;;28.20;;
48588;SDS011;34369;51.174;6.738;2023-02-13T11:54:19;29.35;;;27.05;;
48588;SDS011;34369;51.174;6.738;2023-02-13T11:56:58;30.00;;;27.55;;
48588;SDS011;34369;51.174;6.738;2023-02-13T11:59:38;29.73;;;27.33;;
48588;SDS011;34369;51.174;6.738;2023-02-13T12:02:15;29.95;;;27.65;;
48588;SDS011;34369;51.174;6.738;2023-02-13T12:04:51;30.17;;;27.88;;
48588;SDS011;34369;51.174;6.738;2023-02-13T12:07:26;29.67;;;27.37;;
48588;SDS011;34369;51.174;6.738;2023-02-13T12:10:01;29.20;;;26.88;;
48588;SDS011;34369;51.174;6.738;2023-02-13T12:12:51;28.80;;;26.50;;
48588;SDS011;34369;51.174;6.738;2023-02-13T12:15:28;28.70;;;26.50;;
48588;SDS011;34369;51.174;6.738;2023-02-13T12:18:05;28.67;;;26.38;;
48588;SDS011;34369;51.174;6.738;2023-02-13T12:21:00;28.95;;;26.55;;
48588;SDS011;34369;51.174;6.738;2023-02-13T12:23:43;27.05;;;24.85;;
48588;SDS011;34369;51.174;6.738;2023-02-13T12:26:25;26.40;;;24.30;;
48588;SDS011;34369;51.174;6.738;2023-02-13T12:29:18;26.38;;;24.23;;
48588;SDS011;34369;51.174;6.738;2023-02-13T12:32:14;25.70;;;23.67;;
48588;SDS011;34369;51.174;6.738;2023-02-13T12:34:56;25.73;;;23.65;;
48588;SDS011;34369;51.174;6.738;2023-02-13T12:37:51;26.42;;;24.23;;
48588;SDS011;34369;51.174;6.738;2023-02-13T12:40:34;26.45;;;24.35;;
48588;SDS011;34369;51.174;6.738;2023-02-13T12:43:55;27.02;;;24.83;;
48588;SDS011;34369;51.174;6.738;2023-02-13T12:47:14;26.05;;;23.95;;
48588;SDS011;34369;51.174;6.738;2023-02-13T12:50:08;25.92;;;23.70;;
48588;SDS011;34369;51.174;6.738;2023-02-13T12:53:01;25.63;;;23.63;;
48588;SDS011;34369;51.174;6.738;2023-02-13T12:59:08;26.55;;;24.45;;
48588;SDS011;34369;51.174;6.738;2023-02-13T13:01:53;26.23;;;24.23;;
48588;SDS011;34369;51.174;6.738;2023-02-13T13:05:00;27.15;;;24.95;;
48588;SDS011;34369;51.174;6.738;2023-02-13T13:07:52;27.15;;;25.15;;
48588;SDS011;34369;51.174;6.738;2023-02-13T13:10:47;28.13;;;25.95;;
48588;SDS011;34369;51.174;6.738;2023-02-13T13:13:35;28.15;;;26.05;;
48588;SDS011;34369;51.174;6.738;2023-02-13T13:16:22;28.67;;;26.48;;
48588;SDS011;34369;51.174;6.738;2023-02-13T13:19:07;28.55;;;26.45;;
48588;SDS011;34369;51.174;6.738;2023-02-13T13:21:54;29.27;;;26.98;;
48588;SDS011;34369;51.174;6.738;2023-02-13T13:24:32;28.65;;;26.48;;
48588;SDS011;34369;51.174;6.738;2023-02-13T13:27:22;29.73;;;27.48;;
48588;SDS011;34369;51.174;6.738;2023-02-13T13:29:58;29.08;;;26.73;;
48588;SDS011;34369;51.174;6.738;2023-02-13T13:32:35;29.75;;;27.55;;
48588;SDS011;34369;51.174;6.738;2023-02-13T13:35:11;29.38;;;27.17;;
48588;SDS011;34369;51.174;6.738;2023-02-13T13:37:47;29.15;;;26.95;;
48588;SDS011;34369;51.174;6.738;2023-02-13T13:40:36;30.17;;;27.88;;
48588;SDS011;34369;51.174;6.738;2023-02-13T13:43:16;30.42;;;28.15;;
48588;SDS011;34369;51.174;6.738;2023-02-13T13:45:59;29.75;;;27.65;;
48588;SDS011;34369;51.174;6.738;2023-02-13T13:48:51;29.58;;;27.30;;
48588;SDS011;34369;51.174;6.738;2023-02-13T13:51:30;30.50;;;28.30;;
48588;SDS011;34369;51.174;6.738;2023-02-13T13:54:24;30.23;;;28.00;;
48588;SDS011;34369;51.174;6.738;2023-02-13T13:57:06;29.30;;;27.17;;
48588;SDS011;34369;51.174;6.738;2023-02-13T13:59:55;28.95;;;26.75;;
48588;SDS011;34369;51.174;6.738;2023-02-13T14:06:08;26.67;;;24.65;;
48588;SDS011;34369;51.174;6.738;2023-02-13T14:08:53;26.77;;;24.73;;
48588;SDS011;34369;51.174;6.738;2023-02-13T14:11:34;26.98;;;24.98;;
48588;SDS011;34369;51.174;6.738;2023-02-13T14:20:30;27.30;;;25.20;;
48588;SDS011;34369;51.174;6.738;2023-02-13T14:23:13;28.08;;;26.05;;
48588;SDS011;34369;51.174;6.738;2023-02-13T14:26:09;27.52;;;25.52;;
48588;SDS011;34369;51.174;6.738;2023-02-13T14:28:57;27.85;;;25.88;;
48588;SDS011;34369;51.174;6.738;2023-02-13T14:32:00;27.83;;;25.83;;
48588;SDS011;34369;51.174;6.738;2023-02-13T14:34:38;27.75;;;25.63;;
48588;SDS011;34369;51.174;6.738;2023-02-13T14:37:20;27.05;;;25.05;;
48588;SDS011;34369;51.174;6.738;2023-02-13T14:40:11;27.60;;;25.50;;
48588;SDS011;34369;51.174;6.738;2023-02-13T14:43:26;26.48;;;24.58;;
48588;SDS011;34369;51.174;6.738;2023-02-13T14:46:17;27.80;;;25.80;;
48588;SDS011;34369;51.174;6.738;2023-02-13T14:48:59;27.45;;;25.45;;
48588;SDS011;34369;51.174;6.738;2023-02-13T14:51:38;26.85;;;24.95;;
48588;SDS011;34369;51.174;6.738;2023-02-13T14:54:20;27.88;;;25.77;;
48588;SDS011;34369;51.174;6.738;2023-02-13T14:56:59;27.13;;;25.20;;
48588;SDS011;34369;51.174;6.738;2023-02-13T14:59:39;26.85;;;24.85;;
48588;SDS011;34369;51.174;6.738;2023-02-13T15:02:20;27.45;;;25.35;;
48588;SDS011;34369;51.174;6.738;2023-02-13T15:04:55;26.80;;;24.90;;
48588;SDS011;34369;51.174;6.738;2023-02-13T15:07:32;27.20;;;25.30;;
48588;SDS011;34369;51.174;6.738;2023-02-13T15:10:14;26.42;;;24.55;;
48588;SDS011;34369;51.174;6.738;2023-02-13T15:13:04;28.00;;;25.90;;
48588;SDS011;34369;51.174;6.738;2023-02-13T15:15:36;26.25;;;24.35;;
48588;SDS011;34369;51.174;6.738;2023-02-13T15:18:10;26.90;;;24.80;;
48588;SDS011;34369;51.174;6.738;2023-02-13T15:20:55;26.33;;;24.52;;
48588;SDS011;34369;51.174;6.738;2023-02-13T15:23:30;27.10;;;25.20;;
48588;SDS011;34369;51.174;6.738;2023-02-13T15:26:05;27.08;;;25.17;;
48588;SDS011;34369;51.174;6.738;2023-02-13T15:28:38;26.13;;;24.23;;
48588;SDS011;34369;51.174;6.738;2023-02-13T15:31:19;25.48;;;23.58;;
48588;SDS011;34369;51.174;6.738;2023-02-13T15:33:58;25.90;;;24.08;;
48588;SDS011;34369;51.174;6.738;2023-02-13T15:36:33;25.60;;;23.80;;
48588;SDS011;34369;51.174;6.738;2023-02-13T15:39:14;24.60;;;22.85;;
48588;SDS011;34369;51.174;6.738;2023-02-13T15:41:49;25.52;;;23.73;;
48588;SDS011;34369;51.174;6.738;2023-02-13T15:44:25;24.80;;;23.10;;
48588;SDS011;34369;51.174;6.738;2023-02-13T15:49:38;25.00;;;23.20;;
48588;SDS011;34369;51.174;6.738;2023-02-13T15:52:17;25.60;;;23.70;;